sensor_id;sensor_type;location;lat;lon;timestamp;pressure;altitude;pressure_sealevel;temperature;humidity
74270;BME280;62754;48.252;11.654;2023-06-22T00:01:43;96244.94;;;19.07;88.08
74270;BME280;62754;48.252;11.654;2023-06-22T00:04:12;96235.59;;;19.12;87.61
74270;BME280;62754;48.252;11.654;2023-06-22T00:06:39;96239.25;;;19.03;87.98
74270;BME280;62754;48.252;11.654;2023-06-22T00:09:07;96229.44;;;19.05;87.02
74270;BME280;62754;48.252;11.654;2023-06-22T00:11:36;96225.38;;;19.02;86.96
74270;BME280;62754;48.252;11.654;2023-06-22T00:14:04;96226.69;;;18.98;87.05
74270;BME280;62754;48.252;11.654;2023-06-22T00:16:36;96222.41;;;19.06;86.11
74270;BME280;62754;48.252;11.654;2023-06-22T00:19:04;96223.91;;;19.00;86.40
74270;BME280;62754;48.252;11.654;2023-06-22T00:21:30;96215.94;;;18.93;86.91
74270;BME280;62754;48.252;11.654;2023-06-22T00:23:55;96218.16;;;19.04;86.27
74270;BME280;62754;48.252;11.654;2023-06-22T00:26:21;96218.53;;;19.01;86.16
74270;BME280;62754;48.252;11.654;2023-06-22T00:28:47;96215.28;;;18.99;86.34
74270;BME280;62754;48.252;11.654;2023-06-22T00:31:15;96212.84;;;18.98;86.55
74270;BME280;62754;48.252;11.654;2023-06-22T00:33:43;96209.44;;;18.89;86.94
74270;BME280;62754;48.252;11.654;2023-06-22T00:36:09;96211.59;;;18.86;87.22
74270;BME280;62754;48.252;11.654;2023-06-22T00:38:40;96203.94;;;18.84;87.25
74270;BME280;62754;48.252;11.654;2023-06-22T00:41:08;96202.13;;;18.85;87.77
74270;BME280;62754;48.252;11.654;2023-06-22T00:43:33;96217.66;;;18.78;87.94
74270;BME280;62754;48.252;11.654;2023-06-22T00:46:04;96211.00;;;18.76;87.96
74270;BME280;62754;48.252;11.654;2023-06-22T00:48:32;96196.81;;;18.70;88.07
74270;BME280;62754;48.252;11.654;2023-06-22T00:50:58;96213.44;;;18.69;88.10
74270;BME280;62754;48.252;11.654;2023-06-22T00:53:25;96207.09;;;18.72;87.72
74270;BME280;62754;48.252;11.654;2023-06-22T00:55:50;96216.03;;;18.77;87.89
74270;BME280;62754;48.252;11.654;2023-06-22T00:58:17;96212.78;;;18.75;87.89
74270;BME280;62754;48.252;11.654;2023-06-22T01:00:46;96219.94;;;18.73;88.10
74270;BME280;62754;48.252;11.654;2023-06-22T01:03:14;96216.72;;;18.71;87.63
74270;BME280;62754;48.252;11.654;2023-06-22T01:05:40;96217.66;;;18.78;87.16
74270;BME280;62754;48.252;11.654;2023-06-22T01:11:05;96214.38;;;18.84;86.88
74270;BME280;62754;48.252;11.654;2023-06-22T01:13:49;96205.88;;;18.82;86.79
74270;BME280;62754;48.252;11.654;2023-06-22T01:16:25;96202.97;;;18.77;87.57
74270;BME280;62754;48.252;11.654;2023-06-22T01:18:57;96199.88;;;18.74;87.71
74270;BME280;62754;48.252;11.654;2023-06-22T01:21:29;96195.13;;;18.77;87.73
74270;BME280;62754;48.252;11.654;2023-06-22T01:26:35;96187.19;;;18.71;87.78
74270;BME280;62754;48.252;11.654;2023-06-22T01:29:04;96178.53;;;18.70;87.85
74270;BME280;62754;48.252;11.654;2023-06-22T01:31:34;96177.44;;;18.65;88.12
74270;BME280;62754;48.252;11.654;2023-06-22T01:34:02;96169.66;;;18.57;88.33
74270;BME280;62754;48.252;11.654;2023-06-22T01:36:30;96175.84;;;18.55;89.07
74270;BME280;62754;48.252;11.654;2023-06-22T01:38:59;96174.03;;;18.56;88.73
74270;BME280;62754;48.252;11.654;2023-06-22T01:41:29;96162.44;;;18.50;89.01
74270;BME280;62754;48.252;11.654;2023-06-22T01:43:56;96162.63;;;18.49;88.41
74270;BME280;62754;48.252;11.654;2023-06-22T01:46:25;96167.84;;;18.49;88.39
74270;BME280;62754;48.252;11.654;2023-06-22T01:48:51;96172.88;;;18.50;88.47
74270;BME280;62754;48.252;11.654;2023-06-22T01:51:19;96182.38;;;18.51;88.16
74270;BME280;62754;48.252;11.654;2023-06-22T01:53:50;96181.22;;;18.46;88.57
74270;BME280;62754;48.252;11.654;2023-06-22T01:56:19;96168.47;;;18.51;88.33
74270;BME280;62754;48.252;11.654;2023-06-22T02:01:35;96181.09;;;18.39;89.42
74270;BME280;62754;48.252;11.654;2023-06-22T02:04:11;96177.03;;;18.37;89.74
74270;BME280;62754;48.252;11.654;2023-06-22T02:06:45;96172.16;;;18.34;89.53
74270;BME280;62754;48.252;11.654;2023-06-22T02:09:16;96183.56;;;18.33;89.88
74270;BME280;62754;48.252;11.654;2023-06-22T02:11:46;96187.63;;;18.27;90.21
74270;BME280;62754;48.252;11.654;2023-06-22T02:14:16;96180.81;;;18.26;90.26
74270;BME280;62754;48.252;11.654;2023-06-22T02:16:44;96180.97;;;18.25;90.71
74270;BME280;62754;48.252;11.654;2023-06-22T02:19:12;96183.59;;;18.25;90.27
74270;BME280;62754;48.252;11.654;2023-06-22T02:21:43;96191.56;;;18.23;90.41
74270;BME280;62754;48.252;11.654;2023-06-22T02:24:13;96193.31;;;18.31;90.79
74270;BME280;62754;48.252;11.654;2023-06-22T02:26:39;96192.03;;;18.27;90.44
74270;BME280;62754;48.252;11.654;2023-06-22T02:29:05;96187.03;;;18.17;90.92
74270;BME280;62754;48.252;11.654;2023-06-22T02:31:33;96198.28;;;18.18;90.70
74270;BME280;62754;48.252;11.654;2023-06-22T02:33:59;96202.81;;;18.24;90.68
74270;BME280;62754;48.252;11.654;2023-06-22T02:36:25;96208.19;;;18.30;90.06
74270;BME280;62754;48.252;11.654;2023-06-22T02:38:54;96203.97;;;18.21;90.67
74270;BME280;62754;48.252;11.654;2023-06-22T02:41:20;96207.41;;;18.22;90.83
74270;BME280;62754;48.252;11.654;2023-06-22T02:43:51;96210.16;;;18.20;90.76
74270;BME280;62754;48.252;11.654;2023-06-22T02:46:17;96219.13;;;18.26;90.42
74270;BME280;62754;48.252;11.654;2023-06-22T02:48:45;96203.16;;;18.21;90.67
74270;BME280;62754;48.252;11.654;2023-06-22T02:51:10;96200.91;;;18.01;91.39
74270;BME280;62754;48.252;11.654;2023-06-22T02:53:36;96206.94;;;18.02;91.66
74270;BME280;62754;48.252;11.654;2023-06-22T02:56:02;96204.19;;;17.95;92.19
74270;BME280;62754;48.252;11.654;2023-06-22T02:58:30;96210.38;;;17.94;92.68
74270;BME280;62754;48.252;11.654;2023-06-22T03:00:56;96201.75;;;17.94;92.40
74270;BME280;62754;48.252;11.654;2023-06-22T03:03:24;96200.91;;;17.93;93.10
74270;BME280;62754;48.252;11.654;2023-06-22T03:05:55;96198.31;;;17.93;93.24
74270;BME280;62754;48.252;11.654;2023-06-22T03:08:25;96197.00;;;17.97;93.25
74270;BME280;62754;48.252;11.654;2023-06-22T03:10:51;96196.88;;;17.83;94.08
74270;BME280;62754;48.252;11.654;2023-06-22T03:13:16;96191.66;;;17.83;94.46
74270;BME280;62754;48.252;11.654;2023-06-22T03:15:42;96189.03;;;17.91;94.09
74270;BME280;62754;48.252;11.654;2023-06-22T03:18:10;96186.94;;;17.78;94.77
74270;BME280;62754;48.252;11.654;2023-06-22T03:20:38;96182.19;;;17.90;94.15
74270;BME280;62754;48.252;11.654;2023-06-22T03:23:09;96184.47;;;17.85;94.20
74270;BME280;62754;48.252;11.654;2023-06-22T03:25:37;96185.47;;;17.84;94.70
74270;BME280;62754;48.252;11.654;2023-06-22T03:28:05;96190.34;;;17.87;94.64
74270;BME280;62754;48.252;11.654;2023-06-22T03:30:33;96190.03;;;17.82;94.41
74270;BME280;62754;48.252;11.654;2023-06-22T03:33:01;96192.81;;;17.72;95.16
74270;BME280;62754;48.252;11.654;2023-06-22T03:35:27;96189.22;;;17.73;95.33
74270;BME280;62754;48.252;11.654;2023-06-22T03:37:53;96188.38;;;17.73;95.42
74270;BME280;62754;48.252;11.654;2023-06-22T03:40:19;96193.13;;;17.77;95.47
74270;BME280;62754;48.252;11.654;2023-06-22T03:42:45;96196.88;;;17.75;95.63
74270;BME280;62754;48.252;11.654;2023-06-22T03:45:16;96199.63;;;17.81;95.58
74270;BME280;62754;48.252;11.654;2023-06-22T03:47:41;96204.22;;;17.79;95.37
74270;BME280;62754;48.252;11.654;2023-06-22T03:50:08;96198.66;;;17.90;94.96
74270;BME280;62754;48.252;11.654;2023-06-22T03:52:33;96204.19;;;17.95;94.77
74270;BME280;62754;48.252;11.654;2023-06-22T03:55:02;96203.53;;;17.93;94.85
74270;BME280;62754;48.252;11.654;2023-06-22T03:57:29;96202.22;;;17.89;95.22
74270;BME280;62754;48.252;11.654;2023-06-22T03:59:59;96205.16;;;17.94;95.25
74270;BME280;62754;48.252;11.654;2023-06-22T04:02:25;96207.75;;;18.02;94.63
74270;BME280;62754;48.252;11.654;2023-06-22T04:04:51;96213.94;;;18.01;95.01
74270;BME280;62754;48.252;11.654;2023-06-22T04:07:16;96211.47;;;18.08;94.66
74270;BME280;62754;48.252;11.654;2023-06-22T04:09:44;96206.72;;;18.20;93.98
74270;BME280;62754;48.252;11.654;2023-06-22T04:12:10;96205.59;;;18.30;93.40
74270;BME280;62754;48.252;11.654;2023-06-22T04:14:36;96209.81;;;18.23;93.92
74270;BME280;62754;48.252;11.654;2023-06-22T04:17:04;96212.91;;;18.27;94.18
74270;BME280;62754;48.252;11.654;2023-06-22T04:19:30;96213.88;;;18.34;93.99
74270;BME280;62754;48.252;11.654;2023-06-22T04:21:58;96218.28;;;18.33;94.27
74270;BME280;62754;48.252;11.654;2023-06-22T04:24:24;96216.03;;;18.30;94.94
74270;BME280;62754;48.252;11.654;2023-06-22T04:26:54;96210.91;;;18.45;94.16
74270;BME280;62754;48.252;11.654;2023-06-22T04:29:23;96211.53;;;18.47;94.43
74270;BME280;62754;48.252;11.654;2023-06-22T04:31:51;96205.97;;;18.50;94.49
74270;BME280;62754;48.252;11.654;2023-06-22T04:34:19;96200.28;;;18.63;93.77
74270;BME280;62754;48.252;11.654;2023-06-22T04:36:47;96197.16;;;18.67;92.91
74270;BME280;62754;48.252;11.654;2023-06-22T04:39:13;96191.63;;;18.62;92.77
74270;BME280;62754;48.252;11.654;2023-06-22T04:41:41;96196.19;;;18.68;93.20
74270;BME280;62754;48.252;11.654;2023-06-22T04:44:15;96192.06;;;18.74;92.81
74270;BME280;62754;48.252;11.654;2023-06-22T04:46:43;96195.09;;;18.85;92.18
74270;BME280;62754;48.252;11.654;2023-06-22T04:49:11;96199.03;;;18.81;92.39
74270;BME280;62754;48.252;11.654;2023-06-22T04:51:40;96190.72;;;18.78;92.60
74270;BME280;62754;48.252;11.654;2023-06-22T04:54:08;96190.69;;;18.86;92.07
74270;BME280;62754;48.252;11.654;2023-06-22T04:56:34;96185.81;;;18.83;92.09
74270;BME280;62754;48.252;11.654;2023-06-22T04:59:02;96181.69;;;18.88;91.94
74270;BME280;62754;48.252;11.654;2023-06-22T05:01:31;96187.19;;;19.01;91.25
74270;BME280;62754;48.252;11.654;2023-06-22T05:03:57;96179.13;;;19.11;90.63
74270;BME280;62754;48.252;11.654;2023-06-22T05:06:23;96177.81;;;19.15;90.35
74270;BME280;62754;48.252;11.654;2023-06-22T05:08:54;96177.50;;;19.10;90.02
74270;BME280;62754;48.252;11.654;2023-06-22T05:11:22;96185.81;;;19.14;90.73
74270;BME280;62754;48.252;11.654;2023-06-22T05:13:48;96188.88;;;19.17;90.19
74270;BME280;62754;48.252;11.654;2023-06-22T05:16:14;96195.16;;;19.31;89.73
74270;BME280;62754;48.252;11.654;2023-06-22T05:18:42;96188.31;;;19.30;89.08
74270;BME280;62754;48.252;11.654;2023-06-22T05:21:08;96187.97;;;19.33;89.82
74270;BME280;62754;48.252;11.654;2023-06-22T05:23:33;96189.69;;;19.40;88.93
74270;BME280;62754;48.252;11.654;2023-06-22T05:25:59;96188.84;;;19.48;88.13
74270;BME280;62754;48.252;11.654;2023-06-22T05:28:25;96187.47;;;19.60;87.69
74270;BME280;62754;48.252;11.654;2023-06-22T05:30:51;96188.09;;;19.62;87.93
74270;BME280;62754;48.252;11.654;2023-06-22T05:33:17;96186.50;;;19.76;86.49
74270;BME280;62754;48.252;11.654;2023-06-22T05:35:42;96186.44;;;19.84;86.39
74270;BME280;62754;48.252;11.654;2023-06-22T05:38:08;96182.13;;;19.91;87.10
74270;BME280;62754;48.252;11.654;2023-06-22T05:40:34;96180.78;;;20.10;85.78
74270;BME280;62754;48.252;11.654;2023-06-22T05:43:00;96195.59;;;20.17;85.41
74270;BME280;62754;48.252;11.654;2023-06-22T05:45:25;96187.19;;;20.22;85.39
74270;BME280;62754;48.252;11.654;2023-06-22T05:47:54;96175.31;;;20.34;83.25
74270;BME280;62754;48.252;11.654;2023-06-22T05:50:22;96178.13;;;20.32;83.96
74270;BME280;62754;48.252;11.654;2023-06-22T05:52:50;96181.38;;;20.49;83.78
74270;BME280;62754;48.252;11.654;2023-06-22T05:55:16;96173.78;;;20.54;83.75
74270;BME280;62754;48.252;11.654;2023-06-22T05:57:44;96180.16;;;20.66;82.74
74270;BME280;62754;48.252;11.654;2023-06-22T06:00:10;96177.44;;;20.74;82.48
74270;BME280;62754;48.252;11.654;2023-06-22T06:02:36;96178.09;;;20.76;82.20
74270;BME280;62754;48.252;11.654;2023-06-22T06:05:07;96172.84;;;20.76;81.61
74270;BME280;62754;48.252;11.654;2023-06-22T06:07:33;96175.81;;;20.88;81.43
74270;BME280;62754;48.252;11.654;2023-06-22T06:09:58;96175.97;;;20.86;81.21
74270;BME280;62754;48.252;11.654;2023-06-22T06:12:24;96185.03;;;21.05;80.72
74270;BME280;62754;48.252;11.654;2023-06-22T06:14:50;96172.88;;;21.12;79.50
74270;BME280;62754;48.252;11.654;2023-06-22T06:17:15;96195.88;;;21.17;80.04
74270;BME280;62754;48.252;11.654;2023-06-22T06:19:41;96173.75;;;21.19;79.27
74270;BME280;62754;48.252;11.654;2023-06-22T06:22:07;96182.25;;;21.43;79.03
74270;BME280;62754;48.252;11.654;2023-06-22T06:24:35;96181.91;;;21.52;78.97
74270;BME280;62754;48.252;11.654;2023-06-22T06:27:01;96178.22;;;21.68;77.90
74270;BME280;62754;48.252;11.654;2023-06-22T06:29:29;96176.06;;;21.78;76.84
74270;BME280;62754;48.252;11.654;2023-06-22T06:31:55;96179.38;;;21.86;77.29
74270;BME280;62754;48.252;11.654;2023-06-22T06:34:20;96182.72;;;21.95;76.40
74270;BME280;62754;48.252;11.654;2023-06-22T06:36:46;96171.78;;;21.92;75.36
74270;BME280;62754;48.252;11.654;2023-06-22T06:39:12;96164.97;;;21.97;75.57
74270;BME280;62754;48.252;11.654;2023-06-22T06:41:40;96162.84;;;22.14;74.20
74270;BME280;62754;48.252;11.654;2023-06-22T06:44:08;96153.81;;;22.23;74.16
74270;BME280;62754;48.252;11.654;2023-06-22T06:46:36;96143.38;;;22.36;72.25
74270;BME280;62754;48.252;11.654;2023-06-22T06:49:04;96142.63;;;22.42;71.77
74270;BME280;62754;48.252;11.654;2023-06-22T06:51:35;96143.53;;;22.62;71.34
74270;BME280;62754;48.252;11.654;2023-06-22T06:54:03;96157.94;;;22.79;71.16
74270;BME280;62754;48.252;11.654;2023-06-22T06:56:31;96154.16;;;22.95;70.17
74270;BME280;62754;48.252;11.654;2023-06-22T06:58:59;96152.41;;;23.09;69.93
74270;BME280;62754;48.252;11.654;2023-06-22T07:01:27;96150.59;;;23.22;69.11
74270;BME280;62754;48.252;11.654;2023-06-22T07:03:53;96153.00;;;23.11;68.16
74270;BME280;62754;48.252;11.654;2023-06-22T07:06:21;96161.28;;;23.21;67.88
74270;BME280;62754;48.252;11.654;2023-06-22T07:08:51;96155.47;;;23.39;67.77
74270;BME280;62754;48.252;11.654;2023-06-22T07:11:22;96150.47;;;23.50;66.76
74270;BME280;62754;48.252;11.654;2023-06-22T07:13:50;96152.69;;;23.66;67.32
74270;BME280;62754;48.252;11.654;2023-06-22T07:16:15;96150.66;;;23.88;65.88
74270;BME280;62754;48.252;11.654;2023-06-22T07:18:44;96148.19;;;24.06;65.52
74270;BME280;62754;48.252;11.654;2023-06-22T07:21:09;96158.94;;;24.25;64.40
74270;BME280;62754;48.252;11.654;2023-06-22T07:23:35;96165.63;;;24.27;64.07
74270;BME280;62754;48.252;11.654;2023-06-22T07:26:01;96166.81;;;24.31;63.68
74270;BME280;62754;48.252;11.654;2023-06-22T07:28:31;96157.03;;;24.51;63.67
74270;BME280;62754;48.252;11.654;2023-06-22T07:30:59;96153.31;;;24.72;63.49
74270;BME280;62754;48.252;11.654;2023-06-22T07:33:25;96151.88;;;24.83;62.44
74270;BME280;62754;48.252;11.654;2023-06-22T07:35:51;96155.75;;;24.74;61.84
74270;BME280;62754;48.252;11.654;2023-06-22T07:38:16;96138.28;;;24.86;60.98
74270;BME280;62754;48.252;11.654;2023-06-22T07:40:45;96144.91;;;24.95;61.20
74270;BME280;62754;48.252;11.654;2023-06-22T07:43:14;96137.06;;;25.20;61.41
74270;BME280;62754;48.252;11.654;2023-06-22T07:45:44;96130.19;;;25.19;59.96
74270;BME280;62754;48.252;11.654;2023-06-22T07:48:15;96131.34;;;25.29;60.63
74270;BME280;62754;48.252;11.654;2023-06-22T07:50:43;96130.41;;;25.48;59.27
74270;BME280;62754;48.252;11.654;2023-06-22T07:53:09;96119.66;;;25.75;59.15
74270;BME280;62754;48.252;11.654;2023-06-22T07:55:35;96121.41;;;25.81;59.20
74270;BME280;62754;48.252;11.654;2023-06-22T07:58:03;96120.66;;;25.98;58.46
74270;BME280;62754;48.252;11.654;2023-06-22T08:00:30;96126.03;;;26.10;58.88
74270;BME280;62754;48.252;11.654;2023-06-22T08:02:56;96121.94;;;26.14;58.84
74270;BME280;62754;48.252;11.654;2023-06-22T08:05:24;96120.63;;;26.23;56.96
74270;BME280;62754;48.252;11.654;2023-06-22T08:07:52;96124.44;;;26.27;57.20
74270;BME280;62754;48.252;11.654;2023-06-22T08:10:18;96121.28;;;26.55;57.33
74270;BME280;62754;48.252;11.654;2023-06-22T08:12:44;96116.78;;;26.92;55.34
74270;BME280;62754;48.252;11.654;2023-06-22T08:15:10;96117.09;;;27.14;55.36
74270;BME280;62754;48.252;11.654;2023-06-22T08:17:38;96122.59;;;27.12;54.29
74270;BME280;62754;48.252;11.654;2023-06-22T08:20:05;96123.91;;;27.21;54.61
74270;BME280;62754;48.252;11.654;2023-06-22T08:22:31;96117.69;;;27.57;54.08
74270;BME280;62754;48.252;11.654;2023-06-22T08:24:56;96118.06;;;27.42;53.16
74270;BME280;62754;48.252;11.654;2023-06-22T08:27:22;96113.09;;;27.34;54.04
74270;BME280;62754;48.252;11.654;2023-06-22T08:29:50;96113.19;;;27.16;54.81
74270;BME280;62754;48.252;11.654;2023-06-22T08:32:16;96117.56;;;27.11;54.38
74270;BME280;62754;48.252;11.654;2023-06-22T08:34:42;96107.28;;;27.03;55.58
74270;BME280;62754;48.252;11.654;2023-06-22T08:37:08;96113.53;;;27.61;54.31
74270;BME280;62754;48.252;11.654;2023-06-22T08:39:34;96108.16;;;27.91;53.81
74270;BME280;62754;48.252;11.654;2023-06-22T08:42:03;96106.06;;;28.39;53.26
74270;BME280;62754;48.252;11.654;2023-06-22T08:44:31;96111.59;;;28.50;52.18
74270;BME280;62754;48.252;11.654;2023-06-22T08:46:57;96103.59;;;28.61;51.79
74270;BME280;62754;48.252;11.654;2023-06-22T08:49:25;96107.50;;;28.59;51.32
74270;BME280;62754;48.252;11.654;2023-06-22T08:51:53;96102.38;;;28.29;51.80
74270;BME280;62754;48.252;11.654;2023-06-22T08:54:22;96103.78;;;28.08;51.25
74270;BME280;62754;48.252;11.654;2023-06-22T08:56:47;96108.88;;;28.10;51.72
74270;BME280;62754;48.252;11.654;2023-06-22T08:59:15;96117.63;;;28.22;51.80
74270;BME280;62754;48.252;11.654;2023-06-22T09:01:43;96111.53;;;28.10;52.47
74270;BME280;62754;48.252;11.654;2023-06-22T09:04:14;96102.38;;;28.06;52.86
74270;BME280;62754;48.252;11.654;2023-06-22T09:06:40;96105.59;;;28.42;52.36
74270;BME280;62754;48.252;11.654;2023-06-22T09:09:11;96096.38;;;28.45;51.85
74270;BME280;62754;48.252;11.654;2023-06-22T09:11:37;96099.53;;;28.59;50.85
74270;BME280;62754;48.252;11.654;2023-06-22T09:14:06;96094.34;;;28.75;52.56
74270;BME280;62754;48.252;11.654;2023-06-22T09:16:32;96094.19;;;28.82;51.20
74270;BME280;62754;48.252;11.654;2023-06-22T09:18:57;96090.63;;;29.05;50.96
74270;BME280;62754;48.252;11.654;2023-06-22T09:21:23;96085.91;;;29.23;49.75
74270;BME280;62754;48.252;11.654;2023-06-22T09:23:49;96095.22;;;29.54;49.08
74270;BME280;62754;48.252;11.654;2023-06-22T09:26:15;96091.75;;;29.70;49.38
74270;BME280;62754;48.252;11.654;2023-06-22T09:28:43;96098.72;;;29.88;48.49
74270;BME280;62754;48.252;11.654;2023-06-22T09:31:09;96094.81;;;29.79;48.57
74270;BME280;62754;48.252;11.654;2023-06-22T09:33:37;96095.81;;;29.73;49.15
74270;BME280;62754;48.252;11.654;2023-06-22T09:36:06;96097.66;;;29.89;47.47
74270;BME280;62754;48.252;11.654;2023-06-22T09:38:41;96098.53;;;30.11;48.32
74270;BME280;62754;48.252;11.654;2023-06-22T09:41:06;96083.25;;;30.62;47.18
74270;BME280;62754;48.252;11.654;2023-06-22T09:43:32;96083.34;;;30.72;46.65
74270;BME280;62754;48.252;11.654;2023-06-22T09:45:58;96074.59;;;30.98;46.03
74270;BME280;62754;48.252;11.654;2023-06-22T09:48:24;96071.63;;;31.22;45.42
74270;BME280;62754;48.252;11.654;2023-06-22T09:50:52;96075.34;;;31.20;44.16
74270;BME280;62754;48.252;11.654;2023-06-22T09:53:20;96074.13;;;31.33;44.41
74270;BME280;62754;48.252;11.654;2023-06-22T09:55:47;96080.50;;;31.00;45.99
74270;BME280;62754;48.252;11.654;2023-06-22T09:58:12;96063.97;;;30.98;45.99
74270;BME280;62754;48.252;11.654;2023-06-22T10:00:38;96068.00;;;30.79;46.45
74270;BME280;62754;48.252;11.654;2023-06-22T10:03:04;96068.28;;;31.36;45.23
74270;BME280;62754;48.252;11.654;2023-06-22T10:05:30;96063.53;;;31.70;44.33
74270;BME280;62754;48.252;11.654;2023-06-22T10:07:55;96064.66;;;31.79;44.94
74270;BME280;62754;48.252;11.654;2023-06-22T10:10:21;96058.34;;;31.95;43.21
74270;BME280;62754;48.252;11.654;2023-06-22T10:12:56;96050.09;;;31.92;43.08
74270;BME280;62754;48.252;11.654;2023-06-22T10:15:22;96066.38;;;31.58;44.11
74270;BME280;62754;48.252;11.654;2023-06-22T10:17:48;96056.63;;;31.42;43.57
74270;BME280;62754;48.252;11.654;2023-06-22T10:20:14;96057.56;;;31.95;43.88
74270;BME280;62754;48.252;11.654;2023-06-22T10:22:42;96055.97;;;32.46;41.43
74270;BME280;62754;48.252;11.654;2023-06-22T10:25:09;96061.78;;;32.33;41.55
74270;BME280;62754;48.252;11.654;2023-06-22T10:27:37;96046.81;;;33.04;41.43
74270;BME280;62754;48.252;11.654;2023-06-22T10:30:06;96043.13;;;33.15;40.12
74270;BME280;62754;48.252;11.654;2023-06-22T10:32:32;96046.34;;;33.17;40.42
74270;BME280;62754;48.252;11.654;2023-06-22T10:35:00;96040.41;;;33.10;39.97
74270;BME280;62754;48.252;11.654;2023-06-22T10:37:26;96047.13;;;33.28;40.59
74270;BME280;62754;48.252;11.654;2023-06-22T10:39:52;96050.59;;;33.33;39.67
74270;BME280;62754;48.252;11.654;2023-06-22T10:42:20;96034.03;;;33.62;38.97
74270;BME280;62754;48.252;11.654;2023-06-22T10:44:46;96032.16;;;33.77;39.87
74270;BME280;62754;48.252;11.654;2023-06-22T10:47:12;96026.78;;;33.97;39.26
74270;BME280;62754;48.252;11.654;2023-06-22T10:49:40;96028.41;;;33.58;38.98
74270;BME280;62754;48.252;11.654;2023-06-22T10:52:09;96024.03;;;34.28;38.70
74270;BME280;62754;48.252;11.654;2023-06-22T10:54:37;96021.84;;;34.35;38.17
74270;BME280;62754;48.252;11.654;2023-06-22T10:57:03;96018.25;;;34.60;38.76
74270;BME280;62754;48.252;11.654;2023-06-22T10:59:29;96011.84;;;35.05;36.76
74270;BME280;62754;48.252;11.654;2023-06-22T11:01:56;96013.56;;;34.31;37.35
74270;BME280;62754;48.252;11.654;2023-06-22T11:04:22;96006.84;;;34.93;37.49
74270;BME280;62754;48.252;11.654;2023-06-22T11:06:50;96009.09;;;35.15;37.28
74270;BME280;62754;48.252;11.654;2023-06-22T11:09:16;95997.13;;;35.41;36.64
74270;BME280;62754;48.252;11.654;2023-06-22T11:11:42;96006.41;;;34.17;38.84
74270;BME280;62754;48.252;11.654;2023-06-22T11:14:08;96000.38;;;33.45;38.89
74270;BME280;62754;48.252;11.654;2023-06-22T11:16:36;96013.38;;;32.61;40.86
74270;BME280;62754;48.252;11.654;2023-06-22T11:19:02;96007.88;;;32.26;41.26
74270;BME280;62754;48.252;11.654;2023-06-22T11:21:30;96009.78;;;32.35;40.77
74270;BME280;62754;48.252;11.654;2023-06-22T11:23:58;96008.75;;;32.46;41.99
74270;BME280;62754;48.252;11.654;2023-06-22T11:26:25;96012.66;;;33.26;41.38
74270;BME280;62754;48.252;11.654;2023-06-22T11:28:51;96009.72;;;33.68;40.50
74270;BME280;62754;48.252;11.654;2023-06-22T11:31:17;96003.06;;;33.35;40.26
74270;BME280;62754;48.252;11.654;2023-06-22T11:33:42;96000.88;;;33.73;39.95
74270;BME280;62754;48.252;11.654;2023-06-22T11:36:10;96001.19;;;33.71;39.52
74270;BME280;62754;48.252;11.654;2023-06-22T11:38:36;95999.22;;;33.97;39.13
74270;BME280;62754;48.252;11.654;2023-06-22T11:41:02;95993.03;;;34.12;39.35
74270;BME280;62754;48.252;11.654;2023-06-22T11:43:27;95991.13;;;34.76;37.55
74270;BME280;62754;48.252;11.654;2023-06-22T11:45:56;95983.50;;;35.66;35.93
74270;BME280;62754;48.252;11.654;2023-06-22T11:48:21;95972.50;;;35.68;36.77
74270;BME280;62754;48.252;11.654;2023-06-22T11:50:52;95969.13;;;35.81;35.45
74270;BME280;62754;48.252;11.654;2023-06-22T11:53:20;95965.53;;;35.67;34.26
74270;BME280;62754;48.252;11.654;2023-06-22T11:55:49;95955.75;;;36.23;34.10
74270;BME280;62754;48.252;11.654;2023-06-22T11:58:19;95955.06;;;36.55;33.45
74270;BME280;62754;48.252;11.654;2023-06-22T12:00:45;95957.69;;;36.98;33.62
74270;BME280;62754;48.252;11.654;2023-06-22T12:03:11;95954.56;;;36.53;33.20
74270;BME280;62754;48.252;11.654;2023-06-22T12:05:39;95952.91;;;36.95;33.15
74270;BME280;62754;48.252;11.654;2023-06-22T12:08:05;95960.78;;;37.56;33.15
74270;BME280;62754;48.252;11.654;2023-06-22T12:10:30;95959.81;;;37.79;32.20
74270;BME280;62754;48.252;11.654;2023-06-22T12:12:58;95954.34;;;37.98;31.24
74270;BME280;62754;48.252;11.654;2023-06-22T12:15:24;95949.06;;;38.06;31.74
74270;BME280;62754;48.252;11.654;2023-06-22T12:17:50;95945.72;;;38.50;31.07
74270;BME280;62754;48.252;11.654;2023-06-22T12:20:17;95946.34;;;37.01;32.94
74270;BME280;62754;48.252;11.654;2023-06-22T12:22:43;95946.03;;;37.21;33.65
74270;BME280;62754;48.252;11.654;2023-06-22T12:25:09;95935.28;;;37.94;33.03
74270;BME280;62754;48.252;11.654;2023-06-22T12:27:35;95928.22;;;37.71;30.86
74270;BME280;62754;48.252;11.654;2023-06-22T12:30:06;95918.00;;;37.41;30.62
74270;BME280;62754;48.252;11.654;2023-06-22T12:32:34;95923.84;;;37.61;31.23
74270;BME280;62754;48.252;11.654;2023-06-22T12:35:00;95919.28;;;37.30;32.01
74270;BME280;62754;48.252;11.654;2023-06-22T12:37:30;95912.88;;;35.76;33.48
74270;BME280;62754;48.252;11.654;2023-06-22T12:40:01;95919.22;;;34.99;34.95
74270;BME280;62754;48.252;11.654;2023-06-22T12:42:32;95912.63;;;35.72;34.85
74270;BME280;62754;48.252;11.654;2023-06-22T12:44:58;95908.22;;;36.66;33.41
74270;BME280;62754;48.252;11.654;2023-06-22T12:47:23;95914.78;;;37.57;32.73
74270;BME280;62754;48.252;11.654;2023-06-22T12:49:52;95907.94;;;37.33;31.20
74270;BME280;62754;48.252;11.654;2023-06-22T12:52:22;95913.28;;;37.92;30.38
74270;BME280;62754;48.252;11.654;2023-06-22T12:54:52;95909.91;;;37.27;31.05
74270;BME280;62754;48.252;11.654;2023-06-22T12:57:20;95905.94;;;36.73;31.15
74270;BME280;62754;48.252;11.654;2023-06-22T12:59:48;95896.94;;;35.84;32.65